Star Martha — V7TY3 — position and weather

sailwx.info

Track history (hours):
 
Tides and Currents Weather Stations Pressure Air Temp Water Temp Dewpoint Dewpoint Depression Visibility Wind Speed Wind Dir Waves Ship Positions

Star Martha

Last reported at 2017-Nov-12 01:13 UTC. Time now 2017-Nov-23 16:50 UTC.
Position N 35°42' W 007°39'.
Warning: this ship's position is 11 days out of date.

Length 289 m; draft 11 m.

Type: Cargo ship. MMSI: 538003904.

Date/timePositionNaut miles runAvg speedWind from/ knotsBaromVisibWave heightAir tempDewpointWater temp
2017-Nov-12 01:13N 35°42' W 007°39'312.4
2017-Nov-12 01:00N 35°42' W 007°36'712.6
2017-Nov-12 00:26N 35°44' W 007°27'9012.5
2017-Nov-11 17:15N 35°58' W 005°38'311.7
2017-Nov-11 17:00N 35°58' W 005°34'810.4
2017-Nov-11 16:16N 36°01' W 005°25'3 9.4
2017-Nov-11 15:58N 36°03' W 005°22'4 8.5
2017-Nov-11 15:30N 36°06' W 005°22'0 0.2
2017-Nov-11 14:56N 36°07' W 005°22'0 0.0
2017-Nov-11 14:26N 36°07' W 005°22'0 0.1
2017-Nov-11 13:56N 36°07' W 005°22'0 0.3
2017-Nov-11 13:23N 36°06' W 005°21'0 0.4
2017-Nov-11 12:59N 36°06' W 005°21'0 0.1
2017-Nov-11 12:29N 36°06' W 005°21'0 0.1
2017-Nov-11 11:56N 36°06' W 005°21'0 0.0
2017-Nov-11 11:26N 36°06' W 005°21'0 0.1
2017-Nov-11 10:59N 36°06' W 005°21'0 0.0
2017-Nov-11 10:29N 36°06' W 005°21'0 0.0
2017-Nov-11 09:59N 36°06' W 005°21'0 0.0
2017-Nov-11 09:29N 36°06' W 005°21'0 0.0
2017-Nov-11 08:59N 36°06' W 005°21'0 0.0
2017-Nov-11 07:20N 36°06' W 005°21'0 0.1
2017-Nov-11 06:32N 36°06' W 005°22'0 0.3
2017-Nov-11 06:29N 36°06' W 005°22'0 0.1
2017-Nov-11 05:59N 36°06' W 005°21'0 0.0
2017-Nov-11 05:26N 36°06' W 005°21'0 0.2
2017-Nov-11 04:59N 36°06' W 005°21'0 0.1
2017-Nov-11 04:29N 36°06' W 005°21'0 0.1
2017-Nov-11 03:59N 36°06' W 005°21'0 0.1
2017-Nov-11 03:26N 36°06' W 005°21'0 0.0
2017-Nov-11 00:35N 36°06' W 005°22'0 0.1
2017-Nov-11 00:20N 36°06' W 005°22'0 0.0
2017-Nov-10 23:50N 36°06' W 005°22'0 0.2
2017-Nov-10 23:29N 36°06' W 005°21'1 1.3
2017-Nov-10 23:00N 36°06' W 005°22'1 2.8
2017-Nov-10 22:30N 36°05' W 005°20'5 9.8
2017-Nov-10 22:00N 36°05' W 005°14'810.6
2017-Nov-10 21:18N 36°09' W 005°06'21010.3
2017-Nov-10 00:54N 37°16' W 000°59'614.1
2017-Nov-10 00:30N 37°20' W 000°54'713.9
2017-Nov-10 00:00N 37°25' W 000°47'713.4
2017-Nov-09 23:30N 37°29' W 000°41'713.3
2017-Nov-09 23:00N 37°34' W 000°35'612.8
2017-Nov-09 22:30N 37°39' W 000°30'1212.7
2017-Nov-09 21:32N 37°49' W 000°22'012.7
2017-Nov-09 21:30N 37°50' W 000°22'712.5
2017-Nov-09 20:57N 37°55' W 000°17'612.6
2017-Nov-09 20:30N 37°60' W 000°13'38913.1
2017-Nov-08 14:44N 43°08' E 004°60'712.9
2017-Nov-08 14:12N 43°15' E 005°00'411.6
2017-Nov-08 13:54N 43°18' E 004°59'410.2
2017-Nov-08 13:30N 43°22' E 004°58'  
2017-Nov-06 02:29N 43°26' E 004°52'0 0.0
2017-Nov-06 01:59N 43°26' E 004°52'0 0.0
2017-Nov-06 01:28N 43°26' E 004°52'0 0.0
2017-Nov-06 00:58N 43°26' E 004°52'0 0.0
2017-Nov-06 00:28N 43°26' E 004°52'0 0.0
2017-Nov-05 23:58N 43°26' E 004°52'0 0.0
2017-Nov-05 23:29N 43°26' E 004°52'0 0.0
2017-Nov-05 22:58N 43°26' E 004°52'0 0.0
2017-Nov-05 22:29N 43°26' E 004°52'0 0.0
2017-Nov-05 21:58N 43°26' E 004°52'0 0.0
2017-Nov-05 21:28N 43°26' E 004°52'0 0.0
2017-Nov-05 20:58N 43°26' E 004°52'0 0.0
2017-Nov-05 20:28N 43°26' E 004°52'0 0.0
2017-Nov-05 19:58N 43°26' E 004°52'0 0.0
2017-Nov-05 19:28N 43°26' E 004°52'0 0.0
2017-Nov-05 18:52N 43°26' E 004°52'0 0.0
2017-Nov-05 18:29N 43°26' E 004°52'0 0.0
2017-Nov-05 17:59N 43°26' E 004°52'0 0.0
2017-Nov-05 17:28N 43°26' E 004°52'0 0.0
2017-Nov-05 16:58N 43°26' E 004°52'0 0.0
2017-Nov-05 16:28N 43°26' E 004°52'0 0.0
2017-Nov-05 15:59N 43°26' E 004°52'0 0.0
2017-Nov-05 15:28N 43°26' E 004°52'0 0.0
2017-Nov-05 14:58N 43°26' E 004°52'0 0.0
2017-Nov-05 14:25N 43°26' E 004°52'0 0.0
2017-Nov-05 13:58N 43°26' E 004°52'0 0.0
2017-Nov-05 13:28N 43°26' E 004°52'0 0.0
2017-Nov-05 12:58N 43°26' E 004°52'0 0.0
2017-Nov-05 12:28N 43°26' E 004°52'0 0.0
2017-Nov-05 11:58N 43°26' E 004°52'0 0.0
2017-Nov-05 11:28N 43°26' E 004°52'0 0.0
2017-Nov-05 10:58N 43°26' E 004°52'0 0.0
2017-Nov-05 10:28N 43°26' E 004°52'0 0.0
2017-Nov-05 09:58N 43°26' E 004°52'0 0.0
2017-Nov-05 09:28N 43°26' E 004°52'0 0.0
2017-Nov-05 08:58N 43°26' E 004°52'0 0.0
2017-Nov-05 08:28N 43°26' E 004°52'0 0.0
2017-Nov-05 07:58N 43°26' E 004°52'0 0.0
2017-Nov-05 07:28N 43°26' E 004°52'0 0.0
2017-Nov-05 06:58N 43°26' E 004°52'0 0.0
2017-Nov-05 06:28N 43°26' E 004°52'0 0.0
2017-Nov-05 05:58N 43°26' E 004°52'0 0.0
2017-Nov-05 05:28N 43°26' E 004°52'0 0.0
2017-Nov-05 04:58N 43°26' E 004°52'0 0.0
2017-Nov-05 04:28N 43°26' E 004°52'0 0.0
2017-Nov-05 03:58N 43°26' E 004°52'0 0.0
2017-Nov-05 03:28N 43°26' E 004°52'0 0.0
2017-Nov-05 02:58N 43°26' E 004°52'0 0.0
2017-Nov-05 02:25N 43°26' E 004°52'0 0.0
2017-Nov-05 01:58N 43°26' E 004°52'0 0.0
2017-Nov-05 01:22N 43°26' E 004°52'0 0.0
2017-Nov-05 00:55N 43°26' E 004°52'0 0.0
2017-Nov-05 00:25N 43°26' E 004°52'0 0.0
2017-Nov-04 23:49N 43°26' E 004°52'0 0.0
2017-Nov-04 22:34N 43°26' E 004°52'0 0.0
2017-Nov-04 22:28N 43°26' E 004°52'0 0.0
2017-Nov-04 21:52N 43°26' E 004°52'0 0.0
2017-Nov-04 21:25N 43°26' E 004°52'0 0.0
2017-Nov-04 20:52N 43°26' E 004°52'0 0.0
2017-Nov-04 20:28N 43°26' E 004°52'0 0.0
2017-Nov-04 19:58N 43°26' E 004°52'0 0.0
2017-Nov-04 19:28N 43°26' E 004°52'0 0.0
2017-Nov-04 18:58N 43°26' E 004°52'0 0.0
2017-Nov-04 18:25N 43°26' E 004°52'0 0.0
2017-Nov-04 17:55N 43°26' E 004°52'0 0.0
2017-Nov-04 17:28N 43°26' E 004°52'0 0.0
2017-Nov-04 16:58N 43°26' E 004°52'0 0.0
2017-Nov-04 16:28N 43°26' E 004°52'0 0.0
2017-Nov-04 15:58N 43°26' E 004°52'0 0.0
2017-Nov-04 15:28N 43°26' E 004°52'0 0.0
2017-Nov-04 14:58N 43°26' E 004°52'0 0.0
2017-Nov-04 14:28N 43°26' E 004°52'0 0.0
2017-Nov-04 13:58N 43°26' E 004°52'0 0.0
2017-Nov-04 13:28N 43°26' E 004°52'0 0.0
2017-Nov-04 12:58N 43°26' E 004°52'0 0.0
2017-Nov-04 12:28N 43°26' E 004°52'0 0.0
2017-Nov-04 11:58N 43°26' E 004°52'0 0.0
2017-Nov-04 11:28N 43°26' E 004°52'0 0.0
2017-Nov-04 10:55N 43°26' E 004°52'0 0.0
2017-Nov-04 10:28N 43°26' E 004°52'0 0.0
2017-Nov-04 09:58N 43°26' E 004°52'0 0.0
2017-Nov-04 09:28N 43°26' E 004°52'0 0.0
2017-Nov-04 08:58N 43°26' E 004°52'0 0.0
2017-Nov-04 08:28N 43°26' E 004°52'0 0.0
2017-Nov-04 07:58N 43°26' E 004°52'0 0.0
2017-Nov-04 07:28N 43°26' E 004°52'0 0.0
2017-Nov-04 06:58N 43°26' E 004°52'0 0.0
2017-Nov-04 06:28N 43°26' E 004°52'0 0.0
2017-Nov-04 05:58N 43°26' E 004°52'0 0.0
2017-Nov-04 05:28N 43°26' E 004°52'0 0.0
2017-Nov-04 04:55N 43°26' E 004°52'0 0.0
2017-Nov-04 04:28N 43°26' E 004°52'0 0.0
2017-Nov-04 03:58N 43°26' E 004°52'0 0.0
2017-Nov-04 03:28N 43°26' E 004°52'0 0.0
2017-Nov-04 02:58N 43°26' E 004°52'0 0.0
2017-Nov-04 02:28N 43°26' E 004°52'0 0.0
2017-Nov-04 01:58N 43°26' E 004°52'0 0.0
2017-Nov-04 01:28N 43°26' E 004°52'0 0.0
2017-Nov-04 00:58N 43°26' E 004°52'0 0.0
2017-Nov-04 00:28N 43°26' E 004°52'0 0.0
2017-Nov-03 23:58N 43°26' E 004°52'0 0.0
2017-Nov-03 23:28N 43°26' E 004°52'0 0.0
2017-Nov-03 22:58N 43°26' E 004°52'0 0.0
2017-Nov-03 22:28N 43°26' E 004°52'0 0.0
2017-Nov-03 21:58N 43°26' E 004°52'0 0.0
2017-Nov-03 21:28N 43°26' E 004°52'0 0.0
2017-Nov-03 20:58N 43°26' E 004°52'0 0.0
2017-Nov-03 20:28N 43°26' E 004°52'0 0.0
2017-Nov-03 19:58N 43°26' E 004°52'0 0.0
2017-Nov-03 19:28N 43°26' E 004°52'0 0.0
2017-Nov-03 18:58N 43°26' E 004°52'0 0.0
2017-Nov-03 18:28N 43°26' E 004°52'0 0.0
2017-Nov-03 17:58N 43°26' E 004°52'0 0.0
2017-Nov-03 17:28N 43°26' E 004°52'0 0.0
2017-Nov-03 16:58N 43°26' E 004°52'0 0.0
2017-Nov-03 16:28N 43°26' E 004°52'0 0.0
2017-Nov-03 15:58N 43°26' E 004°52'0 0.0
2017-Nov-03 15:28N 43°26' E 004°52'0 0.0
2017-Nov-03 14:58N 43°26' E 004°52'0 0.0
2017-Nov-03 14:28N 43°26' E 004°52'0 0.0
2017-Nov-03 13:58N 43°26' E 004°52'0 0.0
2017-Nov-03 13:28N 43°26' E 004°52'0 0.0
2017-Nov-03 12:58N 43°26' E 004°52'0 0.0
2017-Nov-03 12:28N 43°26' E 004°52'0 0.0
2017-Nov-03 11:58N 43°26' E 004°52'0 0.0
2017-Nov-03 11:28N 43°26' E 004°52'0 0.0
2017-Nov-03 10:58N 43°26' E 004°52'0 0.0
2017-Nov-03 10:28N 43°26' E 004°52'0 0.0
2017-Nov-03 09:58N 43°26' E 004°52'0 0.0
2017-Nov-03 09:28N 43°26' E 004°52'0 0.0
2017-Nov-03 08:58N 43°26' E 004°52'0 0.0
2017-Nov-03 08:28N 43°26' E 004°52'0 0.0
2017-Nov-03 07:58N 43°26' E 004°52'0 0.0
2017-Nov-03 07:28N 43°26' E 004°52'0 0.0
2017-Nov-03 06:58N 43°26' E 004°52'0 0.0
2017-Nov-03 06:28N 43°26' E 004°52'0 0.0
2017-Nov-03 05:58N 43°26' E 004°52'0 0.0
2017-Nov-03 05:28N 43°26' E 004°52'0 0.0
2017-Nov-03 04:58N 43°26' E 004°52'0 0.0
2017-Nov-03 04:28N 43°26' E 004°52'0 0.0
2017-Nov-03 03:58N 43°26' E 004°52'0 0.0
2017-Nov-03 03:28N 43°26' E 004°52'0 0.0
2017-Nov-03 02:58N 43°26' E 004°52'0 0.0
2017-Nov-03 02:28N 43°26' E 004°52'0 0.0
2017-Nov-03 01:58N 43°26' E 004°52'0 0.0
2017-Nov-03 01:28N 43°26' E 004°52'0 0.0
2017-Nov-03 00:58N 43°26' E 004°52'0 0.0
2017-Nov-03 00:28N 43°26' E 004°52'0 0.0
2017-Nov-02 23:58N 43°26' E 004°52'0 0.0
2017-Nov-02 23:28N 43°26' E 004°52'0 0.0
2017-Nov-02 22:58N 43°26' E 004°52'0 0.0
2017-Nov-02 22:28N 43°26' E 004°52'0 0.0
2017-Nov-02 21:55N 43°26' E 004°52'0 0.0
2017-Nov-02 21:25N 43°26' E 004°52'0 0.0
2017-Nov-02 20:58N 43°26' E 004°52'0 0.0
2017-Nov-02 20:28N 43°26' E 004°52'0 0.0
2017-Nov-02 19:58N 43°26' E 004°52'0 0.0
2017-Nov-02 19:28N 43°26' E 004°52'0 0.0
2017-Nov-02 18:58N 43°26' E 004°52'0 0.0
2017-Nov-02 18:28N 43°26' E 004°52'0 0.0
2017-Nov-02 17:58N 43°26' E 004°52'0 0.0
2017-Nov-02 17:28N 43°26' E 004°52'0 0.0
2017-Nov-02 16:58N 43°26' E 004°52'0 0.0
2017-Nov-02 16:28N 43°26' E 004°52'0 0.0
2017-Nov-02 15:58N 43°26' E 004°52'0 0.0
2017-Nov-02 15:28N 43°26' E 004°52'0 0.0
2017-Nov-02 14:58N 43°26' E 004°52'0 0.0
2017-Nov-02 14:28N 43°26' E 004°52'0 0.0
2017-Nov-02 13:58N 43°26' E 004°52'0 0.0
2017-Nov-02 13:28N 43°26' E 004°52'0 0.0
2017-Nov-02 12:58N 43°26' E 004°52'0 0.0
2017-Nov-02 12:28N 43°26' E 004°52'0 0.0
2017-Nov-02 11:58N 43°26' E 004°52'0 0.0
2017-Nov-02 11:28N 43°26' E 004°52'0 0.0
2017-Nov-02 10:58N 43°26' E 004°52'0 0.0
2017-Nov-02 10:28N 43°26' E 004°52'0 0.0
2017-Nov-02 09:58N 43°26' E 004°52'0 0.0
2017-Nov-02 09:19N 43°26' E 004°52'0 0.0
2017-Nov-02 08:58N 43°26' E 004°52'0 0.0
2017-Nov-02 08:28N 43°26' E 004°52'0 0.0
2017-Nov-02 07:58N 43°26' E 004°52'0 0.0
2017-Nov-02 07:28N 43°26' E 004°52'0 0.0
2017-Nov-02 06:58N 43°26' E 004°52'0 0.0
2017-Nov-02 06:28N 43°26' E 004°52'0 0.0
2017-Nov-02 05:58N 43°26' E 004°52'0 0.0
2017-Nov-02 05:28N 43°26' E 004°52'0 0.0
2017-Nov-02 04:58N 43°26' E 004°52'0 0.0
2017-Nov-02 04:28N 43°26' E 004°52'0 0.0
2017-Nov-02 03:58N 43°26' E 004°52'0 0.0
2017-Nov-02 03:28N 43°26' E 004°52'0 0.0
2017-Nov-02 02:58N 43°26' E 004°52'0 0.0
2017-Nov-02 02:28N 43°26' E 004°52'0 0.0
2017-Nov-02 01:58N 43°26' E 004°52'0 0.0
2017-Nov-02 01:28N 43°26' E 004°52'  
Track history (hours):
 
Tides and Currents Weather Stations Pressure Air Temp Water Temp Dewpoint Dewpoint Depression Visibility Wind Speed Wind Dir Waves Ship Positions

Star Martha

Last reported at 2017-Nov-12 01:13 UTC. Time now 2017-Nov-23 16:50 UTC.
Position N 35°42' W 007°39'.
Warning: this ship's position is 11 days out of date.

Length 289 m; draft 11 m.

Type: Cargo ship. MMSI: 538003904.

Date/timePositionNaut miles runAvg speedWind from/ knotsBaromVisibWave heightAir tempDewpointWater temp
2017-Nov-12 01:13N 35°42' W 007°39'312.4
2017-Nov-12 01:00N 35°42' W 007°36'712.6
2017-Nov-12 00:26N 35°44' W 007°27'9012.5
2017-Nov-11 17:15N 35°58' W 005°38'311.7
2017-Nov-11 17:00N 35°58' W 005°34'810.4
2017-Nov-11 16:16N 36°01' W 005°25'3 9.4
2017-Nov-11 15:58N 36°03' W 005°22'4 8.5
2017-Nov-11 15:30N 36°06' W 005°22'0 0.2
2017-Nov-11 14:56N 36°07' W 005°22'0 0.0
2017-Nov-11 14:26N 36°07' W 005°22'0 0.1
2017-Nov-11 13:56N 36°07' W 005°22'0 0.3
2017-Nov-11 13:23N 36°06' W 005°21'0 0.4
2017-Nov-11 12:59N 36°06' W 005°21'0 0.1
2017-Nov-11 12:29N 36°06' W 005°21'0 0.1
2017-Nov-11 11:56N 36°06' W 005°21'0 0.0
2017-Nov-11 11:26N 36°06' W 005°21'0 0.1
2017-Nov-11 10:59N 36°06' W 005°21'0 0.0
2017-Nov-11 10:29N 36°06' W 005°21'0 0.0
2017-Nov-11 09:59N 36°06' W 005°21'0 0.0
2017-Nov-11 09:29N 36°06' W 005°21'0 0.0
2017-Nov-11 08:59N 36°06' W 005°21'0 0.0
2017-Nov-11 07:20N 36°06' W 005°21'0 0.1
2017-Nov-11 06:32N 36°06' W 005°22'0 0.3
2017-Nov-11 06:29N 36°06' W 005°22'0 0.1
2017-Nov-11 05:59N 36°06' W 005°21'0 0.0
2017-Nov-11 05:26N 36°06' W 005°21'0 0.2
2017-Nov-11 04:59N 36°06' W 005°21'0 0.1
2017-Nov-11 04:29N 36°06' W 005°21'0 0.1
2017-Nov-11 03:59N 36°06' W 005°21'0 0.1
2017-Nov-11 03:26N 36°06' W 005°21'0 0.0
2017-Nov-11 00:35N 36°06' W 005°22'0 0.1
2017-Nov-11 00:20N 36°06' W 005°22'0 0.0
2017-Nov-10 23:50N 36°06' W 005°22'0 0.2
2017-Nov-10 23:29N 36°06' W 005°21'1 1.3
2017-Nov-10 23:00N 36°06' W 005°22'1 2.8
2017-Nov-10 22:30N 36°05' W 005°20'5 9.8
2017-Nov-10 22:00N 36°05' W 005°14'810.6
2017-Nov-10 21:18N 36°09' W 005°06'21010.3
2017-Nov-10 00:54N 37°16' W 000°59'614.1
2017-Nov-10 00:30N 37°20' W 000°54'713.9
2017-Nov-10 00:00N 37°25' W 000°47'713.4
2017-Nov-09 23:30N 37°29' W 000°41'713.3
2017-Nov-09 23:00N 37°34' W 000°35'612.8
2017-Nov-09 22:30N 37°39' W 000°30'1212.7
2017-Nov-09 21:32N 37°49' W 000°22'012.7
2017-Nov-09 21:30N 37°50' W 000°22'712.5
2017-Nov-09 20:57N 37°55' W 000°17'612.6
2017-Nov-09 20:30N 37°60' W 000°13'38913.1
2017-Nov-08 14:44N 43°08' E 004°60'712.9
2017-Nov-08 14:12N 43°15' E 005°00'411.6
2017-Nov-08 13:54N 43°18' E 004°59'410.2
2017-Nov-08 13:30N 43°22' E 004°58'  
2017-Nov-06 02:29N 43°26' E 004°52'0 0.0
2017-Nov-06 01:59N 43°26' E 004°52'0 0.0
2017-Nov-06 01:28N 43°26' E 004°52'0 0.0
2017-Nov-06 00:58N 43°26' E 004°52'0 0.0
2017-Nov-06 00:28N 43°26' E 004°52'0 0.0
2017-Nov-05 23:58N 43°26' E 004°52'0 0.0
2017-Nov-05 23:29N 43°26' E 004°52'0 0.0
2017-Nov-05 22:58N 43°26' E 004°52'0 0.0
2017-Nov-05 22:29N 43°26' E 004°52'0 0.0
2017-Nov-05 21:58N 43°26' E 004°52'0 0.0
2017-Nov-05 21:28N 43°26' E 004°52'0 0.0
2017-Nov-05 20:58N 43°26' E 004°52'0 0.0
2017-Nov-05 20:28N 43°26' E 004°52'0 0.0
2017-Nov-05 19:58N 43°26' E 004°52'0 0.0
2017-Nov-05 19:28N 43°26' E 004°52'0 0.0
2017-Nov-05 18:52N 43°26' E 004°52'0 0.0
2017-Nov-05 18:29N 43°26' E 004°52'0 0.0
2017-Nov-05 17:59N 43°26' E 004°52'0 0.0
2017-Nov-05 17:28N 43°26' E 004°52'0 0.0
2017-Nov-05 16:58N 43°26' E 004°52'0 0.0
2017-Nov-05 16:28N 43°26' E 004°52'0 0.0
2017-Nov-05 15:59N 43°26' E 004°52'0 0.0
2017-Nov-05 15:28N 43°26' E 004°52'0 0.0
2017-Nov-05 14:58N 43°26' E 004°52'0 0.0
2017-Nov-05 14:25N 43°26' E 004°52'0 0.0
2017-Nov-05 13:58N 43°26' E 004°52'0 0.0
2017-Nov-05 13:28N 43°26' E 004°52'0 0.0
2017-Nov-05 12:58N 43°26' E 004°52'0 0.0
2017-Nov-05 12:28N 43°26' E 004°52'0 0.0
2017-Nov-05 11:58N 43°26' E 004°52'0 0.0
2017-Nov-05 11:28N 43°26' E 004°52'0 0.0
2017-Nov-05 10:58N 43°26' E 004°52'0 0.0
2017-Nov-05 10:28N 43°26' E 004°52'0 0.0
2017-Nov-05 09:58N 43°26' E 004°52'0 0.0
2017-Nov-05 09:28N 43°26' E 004°52'0 0.0
2017-Nov-05 08:58N 43°26' E 004°52'0 0.0
2017-Nov-05 08:28N 43°26' E 004°52'0 0.0
2017-Nov-05 07:58N 43°26' E 004°52'0 0.0
2017-Nov-05 07:28N 43°26' E 004°52'0 0.0
2017-Nov-05 06:58N 43°26' E 004°52'0 0.0
2017-Nov-05 06:28N 43°26' E 004°52'0 0.0
2017-Nov-05 05:58N 43°26' E 004°52'0 0.0
2017-Nov-05 05:28N 43°26' E 004°52'0 0.0
2017-Nov-05 04:58N 43°26' E 004°52'0 0.0
2017-Nov-05 04:28N 43°26' E 004°52'0 0.0
2017-Nov-05 03:58N 43°26' E 004°52'0 0.0
2017-Nov-05 03:28N 43°26' E 004°52'0 0.0
2017-Nov-05 02:58N 43°26' E 004°52'0 0.0
2017-Nov-05 02:25N 43°26' E 004°52'0 0.0
2017-Nov-05 01:58N 43°26' E 004°52'0 0.0
2017-Nov-05 01:22N 43°26' E 004°52'0 0.0
2017-Nov-05 00:55N 43°26' E 004°52'0 0.0
2017-Nov-05 00:25N 43°26' E 004°52'0 0.0
2017-Nov-04 23:49N 43°26' E 004°52'0 0.0
2017-Nov-04 22:34N 43°26' E 004°52'0 0.0
2017-Nov-04 22:28N 43°26' E 004°52'0 0.0
2017-Nov-04 21:52N 43°26' E 004°52'0 0.0
2017-Nov-04 21:25N 43°26' E 004°52'0 0.0
2017-Nov-04 20:52N 43°26' E 004°52'0 0.0
2017-Nov-04 20:28N 43°26' E 004°52'0 0.0
2017-Nov-04 19:58N 43°26' E 004°52'0 0.0
2017-Nov-04 19:28N 43°26' E 004°52'0 0.0
2017-Nov-04 18:58N 43°26' E 004°52'0 0.0
2017-Nov-04 18:25N 43°26' E 004°52'0 0.0
2017-Nov-04 17:55N 43°26' E 004°52'0 0.0
2017-Nov-04 17:28N 43°26' E 004°52'0 0.0
2017-Nov-04 16:58N 43°26' E 004°52'0 0.0
2017-Nov-04 16:28N 43°26' E 004°52'0 0.0
2017-Nov-04 15:58N 43°26' E 004°52'0 0.0
2017-Nov-04 15:28N 43°26' E 004°52'0 0.0
2017-Nov-04 14:58N 43°26' E 004°52'0 0.0
2017-Nov-04 14:28N 43°26' E 004°52'0 0.0
2017-Nov-04 13:58N 43°26' E 004°52'0 0.0
2017-Nov-04 13:28N 43°26' E 004°52'0 0.0
2017-Nov-04 12:58N 43°26' E 004°52'0 0.0
2017-Nov-04 12:28N 43°26' E 004°52'0 0.0
2017-Nov-04 11:58N 43°26' E 004°52'0 0.0
2017-Nov-04 11:28N 43°26' E 004°52'0 0.0
2017-Nov-04 10:55N 43°26' E 004°52'0 0.0
2017-Nov-04 10:28N 43°26' E 004°52'0 0.0
2017-Nov-04 09:58N 43°26' E 004°52'0 0.0
2017-Nov-04 09:28N 43°26' E 004°52'0 0.0
2017-Nov-04 08:58N 43°26' E 004°52'0 0.0
2017-Nov-04 08:28N 43°26' E 004°52'0 0.0
2017-Nov-04 07:58N 43°26' E 004°52'0 0.0
2017-Nov-04 07:28N 43°26' E 004°52'0 0.0
2017-Nov-04 06:58N 43°26' E 004°52'0 0.0
2017-Nov-04 06:28N 43°26' E 004°52'0 0.0
2017-Nov-04 05:58N 43°26' E 004°52'0 0.0
2017-Nov-04 05:28N 43°26' E 004°52'0 0.0
2017-Nov-04 04:55N 43°26' E 004°52'0 0.0
2017-Nov-04 04:28N 43°26' E 004°52'0 0.0
2017-Nov-04 03:58N 43°26' E 004°52'0 0.0
2017-Nov-04 03:28N 43°26' E 004°52'0 0.0
2017-Nov-04 02:58N 43°26' E 004°52'0 0.0
2017-Nov-04 02:28N 43°26' E 004°52'0 0.0
2017-Nov-04 01:58N 43°26' E 004°52'0 0.0
2017-Nov-04 01:28N 43°26' E 004°52'0 0.0
2017-Nov-04 00:58N 43°26' E 004°52'0 0.0
2017-Nov-04 00:28N 43°26' E 004°52'0 0.0
2017-Nov-03 23:58N 43°26' E 004°52'0 0.0
2017-Nov-03 23:28N 43°26' E 004°52'0 0.0
2017-Nov-03 22:58N 43°26' E 004°52'0 0.0
2017-Nov-03 22:28N 43°26' E 004°52'0 0.0
2017-Nov-03 21:58N 43°26' E 004°52'0 0.0
2017-Nov-03 21:28N 43°26' E 004°52'0 0.0
2017-Nov-03 20:58N 43°26' E 004°52'0 0.0
2017-Nov-03 20:28N 43°26' E 004°52'0 0.0
2017-Nov-03 19:58N 43°26' E 004°52'0 0.0
2017-Nov-03 19:28N 43°26' E 004°52'0 0.0
2017-Nov-03 18:58N 43°26' E 004°52'0 0.0
2017-Nov-03 18:28N 43°26' E 004°52'0 0.0
2017-Nov-03 17:58N 43°26' E 004°52'0 0.0
2017-Nov-03 17:28N 43°26' E 004°52'0 0.0
2017-Nov-03 16:58N 43°26' E 004°52'0 0.0
2017-Nov-03 16:28N 43°26' E 004°52'0 0.0
2017-Nov-03 15:58N 43°26' E 004°52'0 0.0
2017-Nov-03 15:28N 43°26' E 004°52'0 0.0
2017-Nov-03 14:58N 43°26' E 004°52'0 0.0
2017-Nov-03 14:28N 43°26' E 004°52'0 0.0
2017-Nov-03 13:58N 43°26' E 004°52'0 0.0
2017-Nov-03 13:28N 43°26' E 004°52'0 0.0
2017-Nov-03 12:58N 43°26' E 004°52'0 0.0
2017-Nov-03 12:28N 43°26' E 004°52'0 0.0
2017-Nov-03 11:58N 43°26' E 004°52'0 0.0
2017-Nov-03 11:28N 43°26' E 004°52'0 0.0
2017-Nov-03 10:58N 43°26' E 004°52'0 0.0
2017-Nov-03 10:28N 43°26' E 004°52'0 0.0
2017-Nov-03 09:58N 43°26' E 004°52'0 0.0
2017-Nov-03 09:28N 43°26' E 004°52'0 0.0
2017-Nov-03 08:58N 43°26' E 004°52'0 0.0
2017-Nov-03 08:28N 43°26' E 004°52'0 0.0
2017-Nov-03 07:58N 43°26' E 004°52'0 0.0
2017-Nov-03 07:28N 43°26' E 004°52'0 0.0
2017-Nov-03 06:58N 43°26' E 004°52'0 0.0
2017-Nov-03 06:28N 43°26' E 004°52'0 0.0
2017-Nov-03 05:58N 43°26' E 004°52'0 0.0
2017-Nov-03 05:28N 43°26' E 004°52'0 0.0
2017-Nov-03 04:58N 43°26' E 004°52'0 0.0
2017-Nov-03 04:28N 43°26' E 004°52'0 0.0
2017-Nov-03 03:58N 43°26' E 004°52'0 0.0
2017-Nov-03 03:28N 43°26' E 004°52'0 0.0
2017-Nov-03 02:58N 43°26' E 004°52'0 0.0
2017-Nov-03 02:28N 43°26' E 004°52'0 0.0
2017-Nov-03 01:58N 43°26' E 004°52'0 0.0
2017-Nov-03 01:28N 43°26' E 004°52'0 0.0
2017-Nov-03 00:58N 43°26' E 004°52'0 0.0
2017-Nov-03 00:28N 43°26' E 004°52'0 0.0
2017-Nov-02 23:58N 43°26' E 004°52'0 0.0
2017-Nov-02 23:28N 43°26' E 004°52'0 0.0
2017-Nov-02 22:58N 43°26' E 004°52'0 0.0
2017-Nov-02 22:28N 43°26' E 004°52'0 0.0
2017-Nov-02 21:55N 43°26' E 004°52'0 0.0
2017-Nov-02 21:25N 43°26' E 004°52'0 0.0
2017-Nov-02 20:58N 43°26' E 004°52'0 0.0
2017-Nov-02 20:28N 43°26' E 004°52'0 0.0
2017-Nov-02 19:58N 43°26' E 004°52'0 0.0
2017-Nov-02 19:28N 43°26' E 004°52'0 0.0
2017-Nov-02 18:58N 43°26' E 004°52'0 0.0
2017-Nov-02 18:28N 43°26' E 004°52'0 0.0
2017-Nov-02 17:58N 43°26' E 004°52'0 0.0
2017-Nov-02 17:28N 43°26' E 004°52'0 0.0
2017-Nov-02 16:58N 43°26' E 004°52'0 0.0
2017-Nov-02 16:28N 43°26' E 004°52'0 0.0
2017-Nov-02 15:58N 43°26' E 004°52'0 0.0
2017-Nov-02 15:28N 43°26' E 004°52'0 0.0
2017-Nov-02 14:58N 43°26' E 004°52'0 0.0
2017-Nov-02 14:28N 43°26' E 004°52'0 0.0
2017-Nov-02 13:58N 43°26' E 004°52'0 0.0
2017-Nov-02 13:28N 43°26' E 004°52'0 0.0
2017-Nov-02 12:58N 43°26' E 004°52'0 0.0
2017-Nov-02 12:28N 43°26' E 004°52'0 0.0
2017-Nov-02 11:58N 43°26' E 004°52'0 0.0
2017-Nov-02 11:28N 43°26' E 004°52'0 0.0
2017-Nov-02 10:58N 43°26' E 004°52'0 0.0
2017-Nov-02 10:28N 43°26' E 004°52'0 0.0
2017-Nov-02 09:58N 43°26' E 004°52'0 0.0
2017-Nov-02 09:19N 43°26' E 004°52'0 0.0
2017-Nov-02 08:58N 43°26' E 004°52'0 0.0
2017-Nov-02 08:28N 43°26' E 004°52'0 0.0
2017-Nov-02 07:58N 43°26' E 004°52'0 0.0
2017-Nov-02 07:28N 43°26' E 004°52'0 0.0
2017-Nov-02 06:58N 43°26' E 004°52'0 0.0
2017-Nov-02 06:28N 43°26' E 004°52'0 0.0
2017-Nov-02 05:58N 43°26' E 004°52'0 0.0
2017-Nov-02 05:28N 43°26' E 004°52'0 0.0
2017-Nov-02 04:58N 43°26' E 004°52'0 0.0
2017-Nov-02 04:28N 43°26' E 004°52'0 0.0
2017-Nov-02 03:58N 43°26' E 004°52'0 0.0
2017-Nov-02 03:28N 43°26' E 004°52'0 0.0
2017-Nov-02 02:58N 43°26' E 004°52'0 0.0
2017-Nov-02 02:28N 43°26' E 004°52'0 0.0
2017-Nov-02 01:58N 43°26' E 004°52'0 0.0
2017-Nov-02 01:28N 43°26' E 004°52'  

Dump ship's entire track history